createdAt,value
2018-08-18T00:00:31.844Z,21.23
2018-08-18T00:03:01.373Z,21.27
2018-08-18T00:05:30.845Z,21.19
2018-08-18T00:08:00.697Z,21.05
2018-08-18T00:10:30.154Z,21.01
2018-08-18T00:13:00.032Z,21.00
2018-08-18T00:15:29.873Z,20.89
2018-08-18T00:17:59.304Z,20.85
2018-08-18T00:20:29.145Z,20.79
2018-08-18T00:22:58.791Z,20.75
2018-08-18T00:25:28.606Z,20.75
2018-08-18T00:28:04.231Z,20.81
2018-08-18T00:30:33.660Z,20.77
2018-08-18T00:33:03.108Z,20.75
2018-08-18T00:35:32.539Z,20.75
2018-08-18T00:38:02.808Z,20.79
2018-08-18T00:40:32.269Z,20.90
2018-08-18T00:43:01.630Z,21.00
2018-08-18T00:45:31.077Z,21.02
2018-08-18T00:48:00.636Z,20.99
2018-08-18T00:50:43.863Z,20.99
2018-08-18T00:53:14.974Z,20.90
2018-08-18T00:55:47.365Z,20.86
2018-08-18T00:58:29.754Z,20.81
2018-08-18T01:01:03.592Z,20.67
2018-08-18T01:03:40.328Z,20.44
2018-08-18T01:06:20.937Z,20.34
2018-08-18T01:08:54.123Z,20.21
2018-08-18T01:11:24.026Z,20.10
2018-08-18T01:13:55.068Z,20.03
2018-08-18T01:16:24.716Z,19.96
2018-08-18T01:18:55.612Z,19.89
2018-08-18T01:21:25.970Z,19.82
2018-08-18T01:23:57.341Z,19.78
2018-08-18T01:26:26.920Z,19.78
2018-08-18T01:29:06.313Z,19.80
2018-08-18T01:31:35.830Z,19.78
2018-08-18T01:34:05.232Z,19.86
2018-08-18T01:36:34.808Z,19.93
2018-08-18T01:39:05.781Z,19.94
2018-08-18T01:41:35.160Z,19.84
2018-08-18T01:44:14.432Z,19.78
2018-08-18T01:46:46.203Z,19.76
2018-08-18T01:49:35.310Z,19.77
2018-08-18T01:52:12.808Z,19.88
2018-08-18T01:54:42.736Z,19.89
2018-08-18T01:57:13.740Z,19.92
2018-08-18T01:59:44.542Z,19.84
2018-08-18T02:02:18.751Z,19.76
2018-08-18T02:04:48.588Z,19.78
2018-08-18T02:07:33.265Z,19.83
2018-08-18T02:10:03.043Z,19.75
2018-08-18T02:12:39.957Z,19.70
2018-08-18T02:15:10.411Z,19.61
2018-08-18T02:17:39.868Z,19.67
2018-08-18T02:20:10.297Z,19.72
2018-08-18T02:22:39.801Z,19.66
2018-08-18T02:25:14.980Z,19.57
2018-08-18T02:27:44.389Z,19.52
2018-08-18T02:30:18.485Z,19.52
2018-08-18T02:32:47.896Z,19.44
2018-08-18T02:35:17.495Z,19.31
2018-08-18T02:37:46.905Z,19.25
2018-08-18T02:40:17.461Z,19.23
2018-08-18T02:42:46.941Z,19.24
2018-08-18T02:45:18.277Z,19.29
2018-08-18T02:47:47.729Z,19.42
2018-08-18T02:50:17.217Z,19.52
2018-08-18T02:52:46.951Z,19.59
2018-08-18T02:55:17.018Z,18.98
2018-08-18T02:57:46.426Z,19.57
2018-08-18T03:00:24.421Z,19.53
2018-08-18T03:02:54.287Z,19.58
2018-08-18T03:05:23.780Z,19.55
2018-08-18T03:07:53.760Z,19.53
2018-08-18T03:10:26.615Z,19.48
2018-08-18T03:12:58.137Z,19.58
2018-08-18T03:16:03.115Z,19.59
2018-08-18T03:18:37.468Z,19.54
2018-08-18T03:21:06.939Z,19.51
2018-08-18T03:23:36.323Z,19.55
2018-08-18T03:26:07.173Z,19.56
2018-08-18T03:28:49.070Z,19.66
2018-08-18T03:31:18.506Z,19.75
2018-08-18T03:33:48.184Z,19.83
2018-08-18T03:36:27.906Z,19.95
2018-08-18T03:38:57.820Z,19.99
2018-08-18T03:41:28.609Z,20.03
2018-08-18T03:43:58.396Z,20.07
2018-08-18T03:46:28.545Z,20.13
2018-08-18T03:48:57.932Z,20.18
2018-08-18T03:51:57.841Z,20.21
2018-08-18T03:54:27.268Z,20.22
2018-08-18T03:56:56.719Z,19.18
2018-08-18T03:59:26.441Z,20.34
2018-08-18T04:02:00.158Z,20.36
2018-08-18T04:04:37.008Z,20.43
2018-08-18T04:07:08.767Z,20.40
2018-08-18T04:09:39.291Z,20.39
2018-08-18T04:12:10.160Z,20.45
2018-08-18T04:14:40.800Z,20.43
2018-08-18T04:17:21.397Z,20.48
2018-08-18T04:19:50.932Z,20.39
2018-08-18T04:22:20.825Z,20.38
2018-08-18T04:24:50.235Z,20.35
2018-08-18T04:27:52.953Z,20.34
2018-08-18T04:30:22.697Z,20.31
2018-08-18T04:32:56.621Z,20.30
2018-08-18T04:35:27.280Z,20.33
2018-08-18T04:37:58.249Z,20.36
2018-08-18T04:40:27.788Z,20.35
2018-08-18T04:42:59.276Z,20.35
2018-08-18T04:45:29.354Z,20.39
2018-08-18T04:47:58.949Z,20.43
2018-08-18T04:50:28.918Z,20.45
2018-08-18T04:52:59.120Z,20.52
2018-08-18T04:55:28.611Z,20.58
2018-08-18T04:57:58.346Z,20.61
2018-08-18T05:00:28.220Z,20.71
2018-08-18T05:02:59.699Z,20.78
2018-08-18T05:05:30.508Z,20.79
2018-08-18T05:08:01.234Z,20.76
2018-08-18T05:10:31.029Z,20.67
2018-08-18T05:13:00.733Z,20.62
2018-08-18T05:15:30.444Z,20.51
2018-08-18T05:17:59.881Z,20.51
2018-08-18T05:20:29.296Z,20.62
2018-08-18T05:23:14.963Z,20.78
2018-08-18T05:25:44.368Z,20.90
2018-08-18T05:28:13.812Z,21.01
2018-08-18T05:30:43.486Z,20.99
2018-08-18T05:33:12.920Z,21.04
2018-08-18T05:35:42.657Z,21.09
2018-08-18T05:38:12.065Z,21.24
2018-08-18T05:40:41.468Z,21.27
2018-08-18T05:43:10.945Z,21.33
2018-08-18T05:45:40.961Z,21.41
2018-08-18T05:48:10.384Z,21.51
2018-08-18T05:50:39.823Z,21.57
2018-08-18T05:53:22.876Z,21.62
2018-08-18T05:55:52.294Z,21.71
2018-08-18T05:58:22.884Z,21.76
2018-08-18T06:01:27.229Z,21.90
2018-08-18T06:04:03.709Z,21.97
2018-08-18T06:06:33.714Z,22.03
2018-08-18T06:09:03.353Z,22.04
2018-08-18T06:11:32.852Z,22.11
2018-08-18T06:14:02.779Z,22.18
2018-08-18T06:16:32.038Z,22.28
2018-08-18T06:19:01.497Z,22.33
2018-08-18T06:21:31.511Z,22.42
2018-08-18T06:24:00.911Z,22.53
2018-08-18T06:26:32.363Z,22.59
2018-08-18T06:29:02.284Z,22.64
2018-08-18T06:31:31.763Z,22.71
2018-08-18T06:34:01.166Z,22.80
2018-08-18T06:36:30.556Z,22.93
2018-08-18T06:38:59.969Z,23.03
2018-08-18T06:41:29.388Z,23.19
2018-08-18T06:43:59.790Z,23.28
2018-08-18T06:46:30.196Z,23.47
2018-08-18T06:48:59.587Z,23.53
2018-08-18T06:51:29.234Z,23.56
2018-08-18T06:53:58.691Z,23.58
2018-08-18T06:56:28.113Z,23.69
2018-08-18T06:59:01.861Z,23.83
2018-08-18T07:01:31.837Z,23.90
2018-08-18T07:04:02.267Z,24.02
2018-08-18T07:06:32.076Z,24.07
2018-08-18T07:09:01.622Z,24.15
2018-08-18T07:11:31.189Z,24.23
2018-08-18T07:14:01.013Z,24.37
2018-08-18T07:16:30.474Z,24.43
2018-08-18T07:18:59.888Z,24.57
2018-08-18T07:21:29.278Z,24.65
2018-08-18T07:24:00.553Z,24.70
2018-08-18T07:26:29.990Z,24.85
2018-08-18T07:28:59.731Z,24.94
2018-08-18T07:31:29.329Z,24.92
2018-08-18T07:33:58.805Z,24.97
2018-08-18T07:36:29.875Z,25.16
2018-08-18T07:38:59.243Z,25.10
2018-08-18T07:41:28.863Z,25.32
2018-08-18T07:43:58.420Z,25.57
2018-08-18T07:46:28.014Z,25.75
2018-08-18T07:48:57.645Z,25.87
2018-08-18T07:51:27.070Z,25.86
2018-08-18T07:53:56.588Z,26.02
2018-08-18T07:56:25.973Z,26.12
2018-08-18T07:58:55.411Z,26.09
2018-08-18T08:01:24.773Z,26.06
2018-08-18T08:03:54.273Z,26.26
2018-08-18T08:06:23.656Z,26.44
2018-08-18T08:08:53.095Z,26.50
2018-08-18T08:11:23.353Z,26.56
2018-08-18T08:13:53.369Z,26.48
2018-08-18T08:16:26.159Z,26.49
2018-08-18T08:18:55.544Z,26.53
2018-08-18T08:21:25.011Z,26.59
2018-08-18T08:23:55.032Z,26.67
2018-08-18T08:26:24.459Z,26.82
2018-08-18T08:28:53.944Z,26.74
2018-08-18T08:31:23.605Z,26.76
2018-08-18T08:33:53.281Z,26.85
2018-08-18T08:36:22.660Z,26.74
2018-08-18T08:38:57.447Z,26.69
2018-08-18T08:41:28.940Z,26.74
2018-08-18T08:43:58.416Z,26.78
2018-08-18T08:46:27.973Z,26.92
2018-08-18T08:48:59.245Z,26.98
2018-08-18T08:51:29.913Z,27.03
2018-08-18T08:54:00.419Z,27.12
2018-08-18T08:56:34.229Z,27.19
2018-08-18T08:59:04.369Z,27.29
2018-08-18T09:01:34.034Z,27.47
2018-08-18T09:04:04.187Z,27.43
2018-08-18T09:06:35.390Z,27.29
2018-08-18T09:09:07.489Z,27.35
2018-08-18T09:11:36.924Z,27.42
2018-08-18T09:14:08.173Z,27.44
2018-08-18T09:16:37.575Z,27.61
2018-08-18T09:19:06.979Z,27.66
2018-08-18T09:21:42.284Z,27.72
2018-08-18T09:24:12.162Z,27.76
2018-08-18T09:26:46.825Z,27.92
2018-08-18T09:29:19.138Z,28.00
2018-08-18T09:31:49.842Z,28.11
2018-08-18T09:34:19.285Z,28.08
2018-08-18T09:36:49.156Z,28.09
2018-08-18T09:39:25.489Z,28.16
2018-08-18T09:41:54.960Z,28.24
2018-08-18T09:44:31.448Z,28.31
2018-08-18T09:47:00.912Z,28.51
2018-08-18T09:49:31.332Z,28.61
2018-08-18T09:52:01.870Z,28.70
2018-08-18T09:54:31.585Z,28.85
2018-08-18T09:57:01.123Z,28.96
2018-08-18T09:59:30.784Z,28.94
2018-08-18T10:02:02.845Z,29.13
2018-08-18T10:04:32.602Z,29.33
2018-08-18T10:07:02.121Z,29.52
2018-08-18T10:09:31.536Z,29.51
2018-08-18T10:12:01.092Z,28.25
2018-08-18T10:14:30.522Z,29.75
2018-08-18T10:17:00.304Z,29.85
2018-08-18T10:19:32.060Z,30.00
2018-08-18T10:22:02.120Z,30.25
2018-08-18T10:24:31.887Z,30.25
2018-08-18T10:27:07.024Z,30.39
2018-08-18T10:29:37.112Z,30.38
2018-08-18T10:32:06.924Z,30.29
2018-08-18T10:34:36.311Z,30.50
2018-08-18T10:37:06.919Z,30.84
2018-08-18T10:39:37.638Z,31.15
2018-08-18T10:42:27.156Z,31.46
2018-08-18T10:45:01.436Z,31.96
2018-08-18T10:47:31.810Z,32.24
2018-08-18T10:50:12.356Z,32.62
2018-08-18T10:52:59.267Z,32.90
2018-08-18T10:55:28.870Z,33.16
2018-08-18T10:58:01.314Z,33.62
2018-08-18T11:00:32.477Z,33.89
2018-08-18T11:03:03.286Z,32.45
2018-08-18T11:05:32.792Z,32.07
2018-08-18T11:08:06.897Z,31.88
2018-08-18T11:10:38.540Z,31.45
2018-08-18T11:13:08.044Z,31.52
2018-08-18T11:15:37.851Z,31.55
2018-08-18T11:18:07.357Z,31.40
2018-08-18T11:20:36.762Z,31.25
2018-08-18T11:23:10.080Z,31.33
2018-08-18T11:25:45.934Z,31.77
2018-08-18T11:28:16.706Z,32.03
2018-08-18T11:30:46.396Z,31.80
2018-08-18T11:33:46.462Z,31.64
2018-08-18T11:36:15.879Z,31.98
2018-08-18T11:38:45.828Z,32.08
2018-08-18T11:41:15.225Z,31.92
2018-08-18T11:43:47.342Z,32.42
2018-08-18T11:46:16.951Z,32.81
2018-08-18T11:48:47.746Z,32.59
2018-08-18T11:51:17.117Z,32.80
2018-08-18T11:53:59.523Z,32.56
2018-08-18T11:56:28.947Z,32.80
2018-08-18T11:59:06.698Z,33.12
2018-08-18T12:01:37.774Z,33.24
2018-08-18T12:04:07.567Z,33.17
2018-08-18T12:06:42.671Z,32.32
2018-08-18T12:09:12.165Z,33.29
2018-08-18T12:11:41.961Z,33.57
2018-08-18T12:14:11.400Z,33.71
2018-08-18T12:16:40.811Z,33.80
2018-08-18T12:19:10.174Z,33.61
2018-08-18T12:21:46.580Z,33.15
2018-08-18T12:24:17.684Z,33.15
2018-08-18T12:27:19.679Z,33.23
2018-08-18T12:29:49.181Z,33.21
2018-08-18T12:32:23.871Z,32.53
2018-08-18T12:34:53.370Z,32.13
2018-08-18T12:37:27.525Z,30.80
2018-08-18T12:39:58.436Z,31.87
2018-08-18T12:42:28.989Z,32.05
2018-08-18T12:44:58.419Z,32.22
2018-08-18T12:47:28.521Z,32.57
2018-08-18T12:49:58.027Z,33.06
2018-08-18T12:52:27.950Z,33.30
2018-08-18T12:54:57.708Z,33.60
2018-08-18T12:57:39.814Z,33.88
2018-08-18T13:00:10.008Z,34.10
2018-08-18T13:02:44.268Z,34.04
2018-08-18T13:05:14.309Z,34.25
2018-08-18T13:07:44.938Z,34.24
2018-08-18T13:10:18.148Z,34.12
2018-08-18T13:12:47.637Z,33.72
2018-08-18T13:15:17.516Z,33.16
2018-08-18T13:17:46.893Z,32.42
2018-08-18T13:20:19.409Z,32.03
2018-08-18T13:22:49.262Z,31.86
2018-08-18T13:25:18.773Z,31.78
2018-08-18T13:27:55.750Z,31.70
2018-08-18T13:30:26.776Z,31.76
2018-08-18T13:32:58.192Z,31.83
2018-08-18T13:35:27.567Z,31.74
2018-08-18T13:37:57.054Z,31.83
2018-08-18T13:40:28.069Z,32.00
2018-08-18T13:42:57.701Z,32.17
2018-08-18T13:45:45.378Z,32.39
2018-08-18T13:48:14.829Z,32.60
2018-08-18T13:50:44.453Z,32.78
2018-08-18T13:53:14.785Z,30.22
2018-08-18T13:55:44.389Z,32.99
2018-08-18T13:58:13.794Z,32.83
2018-08-18T14:00:43.190Z,32.20
2018-08-18T14:03:26.631Z,31.75
2018-08-18T14:05:56.557Z,31.75
2018-08-18T14:08:26.272Z,31.74
2018-08-18T14:10:55.759Z,31.79
2018-08-18T14:13:25.993Z,31.89
2018-08-18T14:15:58.610Z,31.90
2018-08-18T14:18:27.960Z,31.88
2018-08-18T14:21:01.598Z,31.81
2018-08-18T14:23:31.447Z,31.87
2018-08-18T14:26:00.901Z,31.95
2018-08-18T14:28:30.397Z,31.79
2018-08-18T14:31:00.367Z,31.72
2018-08-18T14:33:29.766Z,31.80
2018-08-18T14:36:05.511Z,31.68
2018-08-18T14:38:34.906Z,31.69
2018-08-18T14:41:04.401Z,31.89
2018-08-18T14:43:36.832Z,32.01
2018-08-18T14:46:14.259Z,32.01
2018-08-18T14:48:43.840Z,32.01
2018-08-18T14:51:13.201Z,32.21
2018-08-18T14:53:43.416Z,32.25
2018-08-18T14:56:12.789Z,32.18
2018-08-18T14:58:44.270Z,32.28
2018-08-18T15:01:14.885Z,32.18
2018-08-18T15:03:44.316Z,32.08
2018-08-18T15:06:13.795Z,32.05
2018-08-18T15:08:43.247Z,32.09
2018-08-18T15:11:12.904Z,31.99
2018-08-18T15:13:42.302Z,31.90
2018-08-18T15:16:12.294Z,31.98
2018-08-18T15:18:43.021Z,31.97
2018-08-18T15:21:12.427Z,31.85
2018-08-18T15:23:42.009Z,32.04
2018-08-18T15:26:11.674Z,32.07
2018-08-18T15:28:41.037Z,32.11
2018-08-18T15:31:10.436Z,32.14
2018-08-18T15:33:39.846Z,32.12
2018-08-18T15:36:21.177Z,32.22
2018-08-18T15:38:50.663Z,32.15
2018-08-18T15:41:20.163Z,32.12
2018-08-18T15:43:49.584Z,32.09
2018-08-18T15:46:19.660Z,32.09
2018-08-18T15:48:50.267Z,32.07
2018-08-18T15:51:20.434Z,32.06
2018-08-18T15:53:55.765Z,32.08
2018-08-18T15:56:26.176Z,32.07
2018-08-18T15:58:59.255Z,32.09
2018-08-18T16:01:29.873Z,32.04
2018-08-18T16:04:01.322Z,31.99
2018-08-18T16:06:30.763Z,31.96
2018-08-18T16:09:00.823Z,31.86
2018-08-18T16:11:30.219Z,31.89
2018-08-18T16:14:00.972Z,31.90
2018-08-18T16:16:30.414Z,31.78
2018-08-18T16:19:05.818Z,31.77
2018-08-18T16:21:35.323Z,31.72
2018-08-18T16:24:04.764Z,31.09
2018-08-18T16:26:34.909Z,31.67
2018-08-18T16:29:05.184Z,31.70
2018-08-18T16:31:36.035Z,31.67
2018-08-18T16:34:05.494Z,31.69
2018-08-18T16:36:40.792Z,31.65
2018-08-18T16:39:13.339Z,31.63
2018-08-18T16:41:44.069Z,31.59
2018-08-18T16:44:17.883Z,31.64
2018-08-18T16:46:48.482Z,31.64
2018-08-18T16:49:17.880Z,31.59
2018-08-18T16:51:53.941Z,31.50
2018-08-18T16:54:28.220Z,31.50
2018-08-18T16:56:58.309Z,31.41
2018-08-18T16:59:29.509Z,31.37
2018-08-18T17:01:58.927Z,31.30
2018-08-18T17:04:31.080Z,31.23
2018-08-18T17:07:01.601Z,31.22
2018-08-18T17:09:40.013Z,31.22
2018-08-18T17:12:18.806Z,31.21
2018-08-18T17:14:48.616Z,31.19
2018-08-18T17:17:18.088Z,31.17
2018-08-18T17:19:47.569Z,31.16
2018-08-18T17:22:17.542Z,31.15
2018-08-18T17:24:46.937Z,31.17
2018-08-18T17:27:17.268Z,31.16
2018-08-18T17:29:52.550Z,31.11
2018-08-18T17:32:22.963Z,31.06
2018-08-18T17:34:53.055Z,31.02
2018-08-18T17:37:22.669Z,30.99
2018-08-18T17:39:52.102Z,30.93
2018-08-18T17:42:21.977Z,30.89
2018-08-18T17:44:52.301Z,30.82
2018-08-18T17:47:21.746Z,30.73
2018-08-18T17:49:57.313Z,30.68
2018-08-18T17:52:28.276Z,30.65
2018-08-18T17:55:14.381Z,30.58
2018-08-18T17:57:43.902Z,30.49
2018-08-18T18:00:17.941Z,30.41
2018-08-18T18:02:53.365Z,30.35
2018-08-18T18:05:24.380Z,30.31
2018-08-18T18:07:56.978Z,30.27
2018-08-18T18:10:28.716Z,30.21
2018-08-18T18:12:58.179Z,30.15
2018-08-18T18:15:35.541Z,30.10
2018-08-18T18:18:05.604Z,30.01
2018-08-18T18:20:35.275Z,30.13
2018-08-18T18:23:05.457Z,30.07
2018-08-18T18:25:39.716Z,29.92
2018-08-18T18:28:09.525Z,29.79
2018-08-18T18:30:39.228Z,29.79
2018-08-18T18:33:12.327Z,29.72
2018-08-18T18:35:43.408Z,29.57
2018-08-18T18:38:13.787Z,29.50
2018-08-18T18:40:44.639Z,29.31
2018-08-18T18:43:14.844Z,29.00
2018-08-18T18:45:44.473Z,28.97
2018-08-18T18:48:16.512Z,28.79
2018-08-18T18:50:49.238Z,28.62
2018-08-18T18:53:18.674Z,28.45
2018-08-18T18:55:54.381Z,28.30
2018-08-18T18:58:23.920Z,28.07
2018-08-18T19:00:58.966Z,27.89
2018-08-18T19:03:28.446Z,27.70
2018-08-18T19:05:57.925Z,27.50
2018-08-18T19:08:27.425Z,27.32
2018-08-18T19:10:57.429Z,27.20
2018-08-18T19:13:27.404Z,27.13
2018-08-18T19:15:56.875Z,27.00
2018-08-18T19:18:26.389Z,26.93
2018-08-18T19:20:56.095Z,26.88
2018-08-18T19:23:25.526Z,26.87
2018-08-18T19:25:54.936Z,26.81
2018-08-18T19:28:24.974Z,26.78
2018-08-18T19:30:55.194Z,26.75
2018-08-18T19:33:24.596Z,26.68
2018-08-18T19:35:54.704Z,26.60
2018-08-18T19:38:25.356Z,26.55
2018-08-18T19:40:55.961Z,26.47
2018-08-18T19:43:26.625Z,26.40
2018-08-18T19:45:56.788Z,26.31
2018-08-18T19:48:27.533Z,26.22
2018-08-18T19:51:05.565Z,26.17
2018-08-18T19:53:38.061Z,26.12
2018-08-18T19:56:10.664Z,26.06
2018-08-18T19:58:40.337Z,26.01
2018-08-18T20:01:09.780Z,25.99
2018-08-18T20:03:40.056Z,25.96
2018-08-18T20:06:13.591Z,25.93
2018-08-18T20:08:43.056Z,25.88
2018-08-18T20:11:12.675Z,25.81
2018-08-18T20:13:42.724Z,25.74
2018-08-18T20:16:14.137Z,25.68
2018-08-18T20:18:45.892Z,25.61
2018-08-18T20:21:17.011Z,25.70
2018-08-18T20:23:46.448Z,25.81
2018-08-18T20:26:15.896Z,25.83
2018-08-18T20:28:46.422Z,25.82
2018-08-18T20:31:17.841Z,25.81
2018-08-18T20:33:48.965Z,25.62
2018-08-18T20:36:20.026Z,25.51
2018-08-18T20:38:49.685Z,25.49
2018-08-18T20:41:19.083Z,25.44
2018-08-18T20:43:50.354Z,25.53
2018-08-18T20:46:21.783Z,25.58
2018-08-18T20:48:51.237Z,25.57
2018-08-18T20:51:26.933Z,25.55
2018-08-18T20:54:01.710Z,25.52
2018-08-18T20:56:32.033Z,25.49
2018-08-18T20:59:03.742Z,24.61
2018-08-18T21:01:32.992Z,25.33
2018-08-18T21:04:03.055Z,25.21
2018-08-18T21:06:33.577Z,25.07
2018-08-18T21:09:15.722Z,25.09
2018-08-18T21:11:50.821Z,25.10
2018-08-18T21:14:20.663Z,25.13
2018-08-18T21:16:50.105Z,24.98
2018-08-18T21:19:23.565Z,24.84
2018-08-18T21:21:54.082Z,24.78
2018-08-18T21:24:24.576Z,24.91
2018-08-18T21:26:55.435Z,24.95
2018-08-18T21:29:24.974Z,24.92
2018-08-18T21:31:54.986Z,24.80
2018-08-18T21:34:24.401Z,24.76
2018-08-18T21:36:53.845Z,24.78
2018-08-18T21:42:06.122Z,24.62
2018-08-18T21:44:37.774Z,24.48
2018-08-18T21:47:11.018Z,24.52
2018-08-18T21:49:44.096Z,24.34
2018-08-18T21:52:16.007Z,24.00
2018-08-18T21:54:46.585Z,23.85
2018-08-18T21:57:16.202Z,23.76
2018-08-18T21:59:56.932Z,23.70
2018-08-18T22:02:38.556Z,23.68
2018-08-18T22:05:14.979Z,23.69
2018-08-18T22:07:50.643Z,23.63
2018-08-18T22:10:21.567Z,23.73
2018-08-18T22:12:51.072Z,23.73
2018-08-18T22:15:21.889Z,23.78
2018-08-18T22:17:53.162Z,23.78
2018-08-18T22:20:24.023Z,23.74
2018-08-18T22:22:53.711Z,23.86
2018-08-18T22:25:25.017Z,23.82
2018-08-18T22:27:55.097Z,23.65
2018-08-18T22:30:27.677Z,23.58
2018-08-18T22:32:58.454Z,23.46
2018-08-18T22:35:28.794Z,23.34
2018-08-18T22:38:05.663Z,23.28
2018-08-18T22:40:38.706Z,23.20
2018-08-18T22:43:08.135Z,23.14
2018-08-18T22:45:37.593Z,23.21
2018-08-18T22:48:08.446Z,23.13
2018-08-18T22:50:37.880Z,23.13
2018-08-18T22:53:08.597Z,23.23
2018-08-18T22:55:38.020Z,23.13
2018-08-18T22:58:08.455Z,23.12
2018-08-18T23:00:41.889Z,23.29
2018-08-18T23:03:15.700Z,23.33
2018-08-18T23:05:45.400Z,23.24
2018-08-18T23:08:15.637Z,23.24
2018-08-18T23:10:52.407Z,23.11
2018-08-18T23:13:23.325Z,22.98
2018-08-18T23:15:55.838Z,22.99
2018-08-18T23:18:25.274Z,22.90
2018-08-18T23:20:55.019Z,22.92
2018-08-18T23:23:24.763Z,23.05
2018-08-18T23:25:55.071Z,23.06
2018-08-18T23:28:25.317Z,22.94
2018-08-18T23:30:55.776Z,22.81
2018-08-18T23:33:27.060Z,22.75
2018-08-18T23:35:56.774Z,19.84
2018-08-18T23:38:27.726Z,22.69
2018-08-18T23:41:01.556Z,22.72
2018-08-18T23:43:31.089Z,22.48
2018-08-18T23:46:00.703Z,22.35
2018-08-18T23:48:31.230Z,22.26
2018-08-18T23:51:00.756Z,22.21
2018-08-18T23:53:30.301Z,22.10
2018-08-18T23:56:00.458Z,22.03
2018-08-18T23:58:31.432Z,22.02
